Fort Myers, FL

9:34 PM EDT on September 01, 2015 (GMT -0400)
Southwest Florida International | | Change Station
CLOSE
Current Station
Airport
Location: Fort Myers Airport,
Elevation: 30 ft
Nearby Weather Stations

Elev 30 ft 26.54 °N, 81.76 °W | Updated 41 minutes ago

Mostly Cloudy
Mostly Cloudy
83 °F
Feels Like 91 °F
N
6
Wind Variable Wind from ESE

Today
High -- | Low -- °F
--% Chance of Precip.
Yesterday
High -- | Low -- °F
Precip. -- in
7:06 AM 7:47 PM
Waning Gibbous, 85% visible
Pressure 30.05 in
Visibility 10.0 miles
Clouds Mostly Cloudy 3600 ft
Heat Index 91 °F
Dew Point 76 °F
Humidity 79%
Rainfall 0.10 in
Snow Depth Not available.
UV 0 out of 12
Pollen 4.80 out of 12
Air Quality Not available.
Flu Activity Not available.
METAR KRSW 020053Z 12005KT 10SM BKN036 28/24 A3005 RMK AO2 SLP174 T02830244
Pressure 30.05 in
Visibility 10.0 miles
Clouds Mostly Cloudy 3600 ft
Heat Index 91 °F
Dew Point 76 °F
Humidity 79%
Rainfall 0.10 in
Snow Depth Not available.
UV 0 out of 12
Pollen 4.80 out of 12
Air Quality Not available.
Flu Activity Not available.
METAR KRSW 020053Z 12005KT 10SM BKN036 28/24 A3005 RMK AO2 SLP174 T02830244

10-Day Weather Forecast

×

Almanac

Astronomy

Sep. 01, 2015 Rise Set
Actual Time
Civil Twilight
Nautical Twilight
Astronomical Twilight
Moon
Length of Visible Light
Length of Day
Tomorrow will be .
, % of the Moon is Illuminated

Today's Extremes

State Highs State Lows

Community

WunderPhotos

Upload Photos

1,851,672 photos uploaded!

WunderBlogs® & News

Nearby

Air Quality

  Air Quality AQ Index Pollutant
Not available.

Snow Depth

Station Depth Elevation

Earthquake Activity

City Distance Mag. Time & Date
Minimum magnitude displayed is 2.5.

Coastal Water Temperatures

Place Temperature

Stations

Nearby Weather Stations

Station Location Temp. Windchill Dew Point Humidity Wind Precip. Elev Updated Type